createdAt,value
2018-01-17T00:01:45.734Z,6.35
2018-01-17T00:04:13.799Z,5.37
2018-01-17T00:06:41.853Z,5.82
2018-01-17T00:09:09.905Z,5.70
2018-01-17T00:11:38.734Z,4.95
2018-01-17T00:14:06.796Z,5.28
2018-01-17T00:16:34.862Z,5.45
2018-01-17T00:19:02.922Z,4.75
2018-01-17T00:21:31.750Z,5.40
2018-01-17T00:23:59.821Z,5.60
2018-01-17T00:26:27.873Z,5.65
2018-01-17T00:28:55.946Z,5.70
2018-01-17T00:31:24.008Z,5.82
2018-01-17T00:33:52.073Z,5.50
2018-01-17T00:36:20.159Z,5.10
2018-01-17T00:38:48.222Z,7.97
2018-01-17T00:41:16.286Z,6.28
2018-01-17T00:43:44.350Z,6.12
2018-01-17T00:46:12.405Z,4.80
2018-01-17T00:48:41.229Z,5.12
2018-01-17T00:51:09.294Z,4.40
2018-01-17T00:53:37.358Z,4.97
2018-01-17T00:56:05.413Z,5.75
2018-01-17T00:58:33.474Z,5.28
2018-01-17T01:01:02.298Z,4.75
2018-01-17T01:03:30.364Z,4.90
2018-01-17T01:05:58.417Z,5.25
2018-01-17T01:08:26.469Z,5.30
2018-01-17T01:10:55.299Z,5.07
2018-01-17T01:13:23.363Z,5.15
2018-01-17T01:15:51.440Z,5.60
2018-01-17T01:18:19.493Z,6.47
2018-01-17T01:20:47.567Z,5.22
2018-01-17T01:23:15.617Z,5.20
2018-01-17T01:25:44.440Z,6.15
2018-01-17T01:28:12.503Z,5.90
2018-01-17T01:30:40.572Z,6.00
2018-01-17T01:33:08.628Z,6.20
2018-01-17T01:35:36.691Z,5.20
2018-01-17T01:38:04.749Z,5.40
2018-01-17T01:40:33.574Z,5.82
2018-01-17T01:43:01.634Z,6.50
2018-01-17T01:45:29.693Z,5.45
2018-01-17T01:47:57.749Z,5.10
2018-01-17T01:50:26.582Z,6.30
2018-01-17T01:52:54.645Z,4.80
2018-01-17T01:55:22.702Z,5.10
2018-01-17T01:57:50.770Z,4.82
2018-01-17T02:00:18.825Z,5.35
2018-01-17T02:02:47.666Z,4.65
2018-01-17T02:05:15.724Z,4.93
2018-01-17T02:07:43.799Z,5.45
2018-01-17T02:10:11.858Z,5.80
2018-01-17T02:12:39.914Z,5.55
2018-01-17T02:15:07.975Z,5.68
2018-01-17T02:17:36.038Z,5.37
2018-01-17T02:20:04.853Z,4.87
2018-01-17T02:22:32.913Z,5.40
2018-01-17T02:25:00.975Z,6.32
2018-01-17T02:27:29.043Z,5.87
2018-01-17T02:29:57.102Z,5.35
2018-01-17T02:32:25.933Z,5.57
2018-01-17T02:34:53.987Z,5.18
2018-01-17T02:37:22.070Z,4.82
2018-01-17T02:40:08.081Z,6.70
2018-01-17T02:42:36.146Z,5.12
2018-01-17T02:45:04.211Z,4.97
2018-01-17T02:47:32.269Z,6.35
2018-01-17T02:50:00.338Z,5.07
2018-01-17T02:52:28.426Z,5.10
2018-01-17T02:54:56.497Z,5.15
2018-01-17T02:57:24.550Z,6.55
2018-01-17T02:59:52.609Z,6.70
2018-01-17T03:02:20.670Z,5.87
2018-01-17T03:04:48.736Z,5.90
2018-01-17T03:07:16.790Z,5.37
2018-01-17T03:09:45.632Z,6.05
2018-01-17T03:12:13.696Z,6.10
2018-01-17T03:14:41.754Z,6.22
2018-01-17T03:17:09.807Z,5.20
2018-01-17T03:19:37.882Z,5.45
2018-01-17T03:22:05.943Z,5.05
2018-01-17T03:24:34.819Z,5.30
2018-01-17T03:27:03.669Z,5.07
2018-01-17T03:29:31.726Z,5.70
2018-01-17T03:31:59.799Z,5.43
2018-01-17T03:34:27.897Z,6.18
2018-01-17T03:36:55.967Z,5.87
2018-01-17T03:39:24.017Z,5.72
2018-01-17T03:41:52.069Z,5.70
2018-01-17T03:44:20.125Z,6.50
2018-01-17T03:46:48.193Z,6.15
2018-01-17T03:49:16.258Z,5.80
2018-01-17T03:51:45.073Z,6.07
2018-01-17T03:54:13.140Z,6.00
2018-01-17T03:56:41.206Z,6.37
2018-01-17T03:59:09.266Z,6.70
2018-01-17T04:01:37.330Z,6.30
2018-01-17T04:04:05.390Z,5.07
2018-01-17T04:06:35.125Z,5.87
2018-01-17T04:09:03.193Z,5.32
2018-01-17T04:11:31.275Z,5.55
2018-01-17T04:13:59.334Z,5.55
2018-01-17T04:16:27.394Z,5.40
2018-01-17T04:18:55.465Z,5.43
2018-01-17T04:21:23.521Z,5.53
2018-01-17T04:23:52.365Z,5.72
2018-01-17T04:26:20.425Z,4.80
2018-01-17T04:28:48.486Z,5.62
2018-01-17T04:31:16.558Z,5.87
2018-01-17T04:33:44.623Z,5.40
2018-01-17T04:36:12.713Z,4.05
2018-01-17T04:38:40.778Z,3.83
2018-01-17T04:41:08.830Z,4.68
2018-01-17T04:43:36.896Z,3.78
2018-01-17T04:46:05.001Z,4.12
2018-01-17T04:48:33.068Z,4.82
2018-01-17T04:51:01.122Z,3.60
2018-01-17T04:53:29.183Z,4.55
2018-01-17T04:55:57.247Z,4.15
2018-01-17T04:58:25.308Z,4.15
2018-01-17T05:00:53.394Z,3.55
2018-01-17T05:03:21.445Z,4.57
2018-01-17T05:05:49.510Z,3.92
2018-01-17T05:08:17.582Z,5.25
2018-01-17T05:10:46.422Z,7.32
2018-01-17T05:13:14.489Z,4.70
2018-01-17T05:15:42.557Z,4.62
2018-01-17T05:18:10.618Z,5.25
2018-01-17T05:20:38.678Z,4.50
2018-01-17T05:23:06.750Z,4.60
2018-01-17T05:25:34.844Z,4.40
2018-01-17T05:28:02.893Z,5.47
2018-01-17T05:30:30.970Z,4.45
2018-01-17T05:32:59.026Z,4.60
2018-01-17T05:35:27.082Z,5.03
2018-01-17T05:37:55.137Z,5.37
2018-01-17T05:40:23.957Z,4.95
2018-01-17T05:42:52.205Z,4.90
2018-01-17T05:45:21.023Z,5.20
2018-01-17T05:47:49.085Z,5.40
2018-01-17T05:50:17.137Z,5.00
2018-01-17T05:52:45.201Z,5.57
2018-01-17T05:55:14.031Z,5.78
2018-01-17T05:57:43.283Z,7.35
2018-01-17T06:00:11.353Z,6.05
2018-01-17T06:02:40.187Z,6.32
2018-01-17T06:05:08.294Z,5.40
2018-01-17T06:07:37.177Z,7.20
2018-01-17T06:10:05.246Z,5.93
2018-01-17T06:12:34.239Z,6.45
2018-01-17T06:15:03.288Z,6.60
2018-01-17T06:17:31.346Z,6.05
2018-01-17T06:19:59.406Z,5.87
2018-01-17T06:22:27.472Z,6.28
2018-01-17T06:24:56.381Z,6.35
2018-01-17T06:27:24.447Z,7.07
2018-01-17T06:29:52.509Z,6.68
2018-01-17T06:32:21.321Z,8.77
2018-01-17T06:34:49.401Z,5.93
2018-01-17T06:37:17.458Z,5.90
2018-01-17T06:39:45.522Z,8.13
2018-01-17T06:42:13.587Z,6.60
2018-01-17T06:44:41.649Z,6.87
2018-01-17T06:47:09.724Z,5.87
2018-01-17T06:49:37.787Z,7.45
2018-01-17T06:52:06.615Z,7.35
2018-01-17T06:54:34.683Z,8.23
2018-01-17T06:57:02.741Z,8.00
2018-01-17T06:59:30.828Z,8.10
2018-01-17T07:01:58.880Z,7.70
2018-01-17T07:04:26.953Z,7.55
2018-01-17T07:06:55.005Z,8.45
2018-01-17T07:09:23.058Z,7.40
2018-01-17T07:11:51.886Z,7.78
2018-01-17T07:14:19.942Z,7.00
2018-01-17T07:16:48.019Z,7.55
2018-01-17T07:19:16.097Z,8.25
2018-01-17T07:21:44.174Z,7.28
2018-01-17T07:24:12.245Z,8.63
2018-01-17T07:26:40.305Z,7.35
2018-01-17T07:29:08.358Z,8.63
2018-01-17T07:31:36.484Z,7.68
2018-01-17T07:34:04.555Z,8.15
2018-01-17T07:36:32.613Z,8.57
2018-01-17T07:39:00.669Z,8.55
2018-01-17T07:41:28.738Z,7.93
2018-01-17T07:43:56.799Z,9.98
2018-01-17T07:46:24.871Z,8.77
2018-01-17T07:48:52.938Z,10.05
2018-01-17T07:51:20.989Z,8.68
2018-01-17T07:53:49.054Z,7.35
2018-01-17T07:56:17.121Z,9.25
2018-01-17T07:58:45.947Z,8.82
2018-01-17T08:01:14.029Z,8.38
2018-01-17T08:03:42.082Z,8.85
2018-01-17T08:06:10.135Z,9.13
2018-01-17T08:08:38.194Z,8.93
2018-01-17T08:11:06.295Z,8.38
2018-01-17T08:13:34.370Z,10.52
2018-01-17T08:16:02.414Z,9.82
2018-01-17T08:18:30.486Z,10.95
2018-01-17T08:20:58.550Z,10.50
2018-01-17T08:23:27.588Z,8.95
2018-01-17T08:25:55.648Z,10.43
2018-01-17T08:28:23.715Z,9.35
2018-01-17T08:30:51.771Z,9.07
2018-01-17T08:33:19.833Z,10.10
2018-01-17T08:35:47.893Z,9.25
2018-01-17T08:38:15.967Z,8.82
2018-01-17T08:40:44.024Z,8.85
2018-01-17T08:43:12.857Z,9.10
2018-01-17T08:45:40.910Z,8.65
2018-01-17T08:48:08.979Z,8.18
2018-01-17T08:50:37.044Z,10.18
2018-01-17T08:53:05.105Z,9.80
2018-01-17T08:55:33.178Z,10.63
2018-01-17T08:58:01.232Z,9.27
2018-01-17T09:00:30.062Z,8.40
2018-01-17T09:02:58.141Z,9.02
2018-01-17T09:05:26.206Z,8.25
2018-01-17T09:07:54.262Z,9.07
2018-01-17T09:10:22.337Z,8.85
2018-01-17T09:12:50.386Z,8.90
2018-01-17T09:15:18.453Z,10.20
2018-01-17T09:17:46.526Z,10.63
2018-01-17T09:20:15.350Z,9.57
2018-01-17T09:22:43.417Z,8.35
2018-01-17T09:25:11.482Z,8.98
2018-01-17T09:27:39.538Z,9.20
2018-01-17T09:30:07.599Z,8.90
2018-01-17T09:32:35.663Z,9.73
2018-01-17T09:35:03.725Z,8.23
2018-01-17T09:37:32.559Z,8.73
2018-01-17T09:40:00.641Z,8.13
2018-01-17T09:42:28.707Z,7.57
2018-01-17T09:44:56.762Z,9.25
2018-01-17T09:47:24.823Z,8.65
2018-01-17T09:49:52.888Z,9.50
2018-01-17T09:52:20.964Z,7.40
2018-01-17T09:54:49.021Z,6.80
2018-01-17T09:57:17.083Z,7.87
2018-01-17T09:59:45.906Z,8.27
2018-01-17T10:02:13.976Z,6.50
2018-01-17T10:04:42.034Z,7.10
2018-01-17T10:07:10.106Z,7.03
2018-01-17T10:09:38.175Z,7.18
2018-01-17T10:12:06.245Z,5.78
2018-01-17T10:14:34.317Z,6.95
2018-01-17T10:17:02.390Z,5.47
2018-01-17T10:19:30.445Z,6.85
2018-01-17T10:21:58.531Z,5.95
2018-01-17T10:24:26.590Z,5.95
2018-01-17T10:26:54.650Z,6.65
2018-01-17T10:29:22.715Z,5.50
2018-01-17T10:31:51.592Z,6.05
2018-01-17T10:34:19.614Z,5.70
2018-01-17T10:36:47.713Z,5.95
2018-01-17T10:39:15.770Z,4.85
2018-01-17T10:41:43.830Z,7.35
2018-01-17T10:44:11.891Z,5.40
2018-01-17T10:46:39.949Z,6.22
2018-01-17T10:49:08.019Z,6.75
2018-01-17T10:51:36.081Z,7.93
2018-01-17T10:54:04.143Z,12.85
2018-01-17T10:56:32.203Z,7.40
2018-01-17T10:59:01.085Z,6.15
2018-01-17T11:01:29.906Z,6.80
2018-01-17T11:03:57.978Z,7.35
2018-01-17T11:06:26.033Z,4.28
2018-01-17T11:08:54.101Z,6.10
2018-01-17T11:11:22.162Z,5.25
2018-01-17T11:13:50.989Z,4.07
2018-01-17T11:16:19.974Z,4.75
2018-01-17T11:18:48.038Z,4.62
2018-01-17T11:21:16.112Z,4.75
2018-01-17T11:23:44.175Z,4.50
2018-01-17T11:26:12.239Z,4.28
2018-01-17T11:28:40.965Z,3.67
2018-01-17T11:31:09.018Z,3.33
2018-01-17T11:33:37.086Z,4.10
2018-01-17T11:36:05.147Z,4.72
2018-01-17T11:38:33.226Z,6.05
2018-01-17T11:41:01.294Z,6.22
2018-01-17T11:43:29.355Z,8.10
2018-01-17T11:45:57.422Z,18.37
2018-01-17T11:48:25.486Z,12.43
2018-01-17T11:50:53.559Z,10.20
2018-01-17T11:53:21.614Z,6.50
2018-01-17T11:55:50.462Z,8.15
2018-01-17T11:58:18.503Z,7.10
2018-01-17T12:00:46.575Z,5.80
2018-01-17T12:03:14.629Z,7.20
2018-01-17T12:05:42.686Z,6.43
2018-01-17T12:08:10.769Z,6.68
2018-01-17T12:10:38.841Z,6.00
2018-01-17T12:13:06.893Z,5.18
2018-01-17T12:15:35.730Z,5.60
2018-01-17T12:18:03.802Z,5.55
2018-01-17T12:20:31.865Z,5.87
2018-01-17T12:22:59.926Z,7.05
2018-01-17T12:25:27.999Z,7.72
2018-01-17T12:27:56.063Z,6.20
2018-01-17T12:30:24.120Z,6.15
2018-01-17T12:32:52.193Z,7.00
2018-01-17T12:35:20.250Z,5.30
2018-01-17T12:37:48.313Z,7.55
2018-01-17T12:40:18.053Z,6.12
2018-01-17T12:42:46.120Z,5.60
2018-01-17T12:45:14.175Z,5.82
2018-01-17T12:47:42.233Z,5.90
2018-01-17T12:50:11.058Z,5.95
2018-01-17T12:52:39.123Z,6.32
2018-01-17T12:55:07.187Z,6.47
2018-01-17T12:57:35.242Z,6.95
2018-01-17T13:00:03.308Z,5.68
2018-01-17T13:02:32.137Z,5.20
2018-01-17T13:05:00.195Z,6.75
2018-01-17T13:07:28.261Z,6.03
2018-01-17T13:09:56.322Z,6.85
2018-01-17T13:12:24.382Z,7.00
2018-01-17T13:14:52.451Z,6.07
2018-01-17T13:17:21.284Z,6.47
2018-01-17T13:19:49.372Z,5.87
2018-01-17T13:22:17.440Z,7.53
2018-01-17T13:24:45.511Z,7.55
2018-01-17T13:27:13.569Z,6.95
2018-01-17T13:29:41.639Z,8.35
2018-01-17T13:32:09.695Z,7.55
2018-01-17T13:34:37.767Z,10.20
2018-01-17T13:37:05.817Z,8.70
2018-01-17T13:39:33.889Z,9.40
2018-01-17T13:42:02.416Z,8.50
2018-01-17T13:44:31.389Z,11.82
2018-01-17T13:46:59.461Z,10.23
2018-01-17T13:49:27.524Z,12.18
2018-01-17T13:51:55.588Z,9.63
2018-01-17T13:54:23.651Z,10.20
2018-01-17T13:56:51.731Z,9.20
2018-01-17T13:59:19.781Z,9.73
2018-01-17T14:01:47.841Z,8.02
2018-01-17T14:04:15.901Z,9.82
2018-01-17T14:06:44.737Z,8.80
2018-01-17T14:09:12.815Z,8.98
2018-01-17T14:11:40.877Z,8.18
2018-01-17T14:14:08.942Z,7.82
2018-01-17T14:16:37.006Z,8.80
2018-01-17T14:19:05.062Z,9.38
2018-01-17T14:21:33.129Z,6.43
2018-01-17T14:24:01.187Z,7.97
2018-01-17T14:26:30.017Z,8.82
2018-01-17T14:28:58.068Z,6.62
2018-01-17T14:31:26.178Z,6.90
2018-01-17T14:33:54.205Z,5.75
2018-01-17T14:36:22.270Z,6.65
2018-01-17T14:38:50.335Z,7.32
2018-01-17T14:41:18.413Z,4.75
2018-01-17T14:43:46.474Z,5.62
2018-01-17T14:46:14.537Z,5.55
2018-01-17T14:48:43.372Z,4.87
2018-01-17T14:51:11.422Z,5.68
2018-01-17T14:53:39.495Z,5.50
2018-01-17T14:56:07.566Z,4.65
2018-01-17T14:58:35.634Z,4.93
2018-01-17T15:01:03.689Z,4.62
2018-01-17T15:03:31.763Z,5.32
2018-01-17T15:05:59.815Z,3.80
2018-01-17T15:08:28.654Z,4.32
2018-01-17T15:10:56.718Z,4.05
2018-01-17T15:13:24.787Z,4.90
2018-01-17T15:15:52.843Z,4.05
2018-01-17T15:18:20.910Z,3.53
2018-01-17T15:20:49.013Z,4.40
2018-01-17T15:23:17.088Z,3.58
2018-01-17T15:25:45.142Z,4.07
2018-01-17T15:28:13.206Z,3.45
2018-01-17T15:30:41.265Z,3.70
2018-01-17T15:33:09.321Z,3.70
2018-01-17T15:35:37.386Z,3.70
2018-01-17T15:38:05.466Z,3.40
2018-01-17T15:40:33.596Z,3.30
2018-01-17T15:43:01.658Z,11.75
2018-01-17T15:45:29.730Z,4.05
2018-01-17T15:47:57.782Z,5.22
2018-01-17T15:50:25.846Z,3.72
2018-01-17T15:52:53.910Z,4.20
2018-01-17T15:55:21.965Z,4.03
2018-01-17T15:57:50.021Z,4.03
2018-01-17T16:00:18.085Z,3.80
2018-01-17T16:02:46.152Z,5.43
2018-01-17T16:05:14.987Z,4.28
2018-01-17T16:07:43.059Z,4.05
2018-01-17T16:10:11.127Z,3.58
2018-01-17T16:12:39.191Z,3.70
2018-01-17T16:15:07.270Z,4.57
2018-01-17T16:17:35.329Z,3.42
2018-01-17T16:20:03.405Z,4.00
2018-01-17T16:22:31.459Z,3.20
2018-01-17T16:24:59.522Z,3.28
2018-01-17T16:27:27.582Z,3.70
2018-01-17T16:29:55.689Z,4.95
2018-01-17T16:32:23.753Z,4.87
2018-01-17T16:34:51.820Z,4.80
2018-01-17T16:37:19.884Z,4.87
2018-01-17T16:39:47.936Z,4.10
2018-01-17T16:42:16.001Z,4.30
2018-01-17T16:44:44.058Z,4.18
2018-01-17T16:47:12.899Z,4.70
2018-01-17T16:49:40.962Z,4.90
2018-01-17T16:52:09.022Z,4.15
2018-01-17T16:54:37.082Z,4.20
2018-01-17T16:57:05.144Z,4.40
2018-01-17T16:59:33.975Z,4.15
2018-01-17T17:02:02.025Z,4.30
2018-01-17T17:04:30.093Z,4.43
2018-01-17T17:06:58.141Z,4.40
2018-01-17T17:09:26.220Z,3.80
2018-01-17T17:11:54.280Z,2.87
2018-01-17T17:14:23.106Z,4.45
2018-01-17T17:16:51.159Z,3.30
2018-01-17T17:19:19.231Z,3.40
2018-01-17T17:21:47.294Z,3.50
2018-01-17T17:24:15.351Z,3.15
2018-01-17T17:26:43.410Z,4.72
2018-01-17T17:29:12.233Z,3.45
2018-01-17T17:31:40.299Z,3.70
2018-01-17T17:34:08.371Z,4.60
2018-01-17T17:36:36.438Z,3.72
2018-01-17T17:39:04.500Z,4.68
2018-01-17T17:41:32.574Z,5.43
2018-01-17T17:44:00.631Z,3.58
2018-01-17T17:46:28.735Z,4.07
2018-01-17T17:48:56.783Z,3.78
2018-01-17T17:51:24.853Z,4.10
2018-01-17T17:53:52.959Z,4.25
2018-01-17T17:56:20.976Z,3.60
2018-01-17T17:58:49.814Z,4.37
2018-01-17T18:01:17.876Z,3.70
2018-01-17T18:03:45.943Z,3.42
2018-01-17T18:06:14.013Z,2.90
2018-01-17T18:08:42.072Z,3.70
2018-01-17T18:11:10.145Z,3.40
2018-01-17T18:13:38.215Z,4.25
2018-01-17T18:16:06.270Z,3.20
2018-01-17T18:18:34.321Z,3.05
2018-01-17T18:21:03.153Z,3.60
2018-01-17T18:23:31.234Z,3.10
2018-01-17T18:25:59.296Z,3.58
2018-01-17T18:28:27.354Z,3.47
2018-01-17T18:30:55.406Z,3.90
2018-01-17T18:33:23.474Z,3.37
2018-01-17T18:35:52.293Z,4.03
2018-01-17T18:38:20.359Z,3.85
2018-01-17T18:40:48.435Z,5.12
2018-01-17T18:43:16.490Z,6.50
2018-01-17T18:45:44.581Z,5.22
2018-01-17T18:48:12.650Z,4.20
2018-01-17T18:50:40.710Z,4.72
2018-01-17T18:53:08.777Z,3.85
2018-01-17T18:55:36.830Z,4.70
2018-01-17T18:58:04.907Z,3.90
2018-01-17T19:00:32.967Z,4.60
2018-01-17T19:03:01.026Z,5.53
2018-01-17T19:05:29.854Z,5.50
2018-01-17T19:07:57.919Z,5.85
2018-01-17T19:10:25.974Z,5.82
2018-01-17T19:12:54.043Z,6.05
2018-01-17T19:15:22.094Z,5.85
2018-01-17T19:17:50.970Z,7.85
2018-01-17T19:20:19.033Z,6.28
2018-01-17T19:22:47.468Z,6.87
2018-01-17T19:25:15.528Z,6.30
2018-01-17T19:27:43.586Z,7.53
2018-01-17T19:30:12.406Z,7.03
2018-01-17T19:32:40.467Z,7.45
2018-01-17T19:35:08.535Z,6.40
2018-01-17T19:37:36.600Z,7.03
2018-01-17T19:40:04.667Z,6.90
2018-01-17T19:42:32.717Z,7.82
2018-01-17T19:45:01.545Z,8.10
2018-01-17T19:47:29.606Z,7.78
2018-01-17T19:49:57.686Z,8.55
2018-01-17T19:52:25.741Z,7.22
2018-01-17T19:54:53.806Z,6.90
2018-01-17T19:57:21.861Z,7.43
2018-01-17T19:59:50.747Z,8.45
2018-01-17T20:02:18.755Z,9.27
2018-01-17T20:04:46.814Z,7.80
2018-01-17T20:07:14.869Z,9.45
2018-01-17T20:09:44.493Z,6.82
2018-01-17T20:12:12.551Z,7.65
2018-01-17T20:14:40.611Z,7.80
2018-01-17T20:17:09.448Z,5.95
2018-01-17T20:19:37.502Z,8.57
2018-01-17T20:22:05.576Z,8.45
2018-01-17T20:24:33.630Z,7.97
2018-01-17T20:27:01.698Z,8.95
2018-01-17T20:29:29.741Z,7.60
2018-01-17T20:31:58.570Z,7.97
2018-01-17T20:34:26.627Z,7.53
2018-01-17T20:36:54.689Z,8.38
2018-01-17T20:39:28.215Z,7.87
2018-01-17T20:41:56.287Z,7.25
2018-01-17T20:44:24.354Z,7.90
2018-01-17T20:46:52.419Z,7.45
2018-01-17T20:49:20.479Z,7.55
2018-01-17T20:51:48.551Z,7.22
2018-01-17T20:54:16.603Z,7.35
2018-01-17T20:56:44.679Z,7.50
2018-01-17T20:59:12.745Z,7.80
2018-01-17T21:01:40.811Z,6.35
2018-01-17T21:04:09.643Z,5.97
2018-01-17T21:06:37.702Z,5.97
2018-01-17T21:09:05.766Z,6.12
2018-01-17T21:11:33.823Z,7.12
2018-01-17T21:14:02.832Z,6.90
2018-01-17T21:16:30.896Z,5.32
2018-01-17T21:18:58.954Z,6.90
2018-01-17T21:21:27.015Z,6.05
2018-01-17T21:23:55.087Z,5.40
2018-01-17T21:26:23.151Z,6.60
2018-01-17T21:28:51.988Z,5.60
2018-01-17T21:31:20.055Z,5.95
2018-01-17T21:33:48.114Z,5.60
2018-01-17T21:36:16.169Z,6.95
2018-01-17T21:38:44.246Z,7.05
2018-01-17T21:41:12.296Z,7.20
2018-01-17T21:43:45.877Z,6.32
2018-01-17T21:46:14.706Z,5.90
2018-01-17T21:48:42.762Z,6.32
2018-01-17T21:51:10.834Z,5.45
2018-01-17T21:53:38.900Z,6.15
2018-01-17T21:56:06.963Z,5.82
2018-01-17T21:58:35.021Z,8.25
2018-01-17T22:01:03.854Z,5.80
2018-01-17T22:03:31.923Z,5.68
2018-01-17T22:06:00.036Z,5.62
2018-01-17T22:08:28.070Z,4.95
2018-01-17T22:10:56.130Z,4.60
2018-01-17T22:13:24.186Z,5.28
2018-01-17T22:15:52.247Z,5.68
2018-01-17T22:18:20.306Z,5.47
2018-01-17T22:20:49.140Z,6.05
2018-01-17T22:23:17.194Z,4.85
2018-01-17T22:25:45.249Z,5.45
2018-01-17T22:28:13.318Z,6.18
2018-01-17T22:30:41.390Z,4.65
2018-01-17T22:33:09.450Z,5.05
2018-01-17T22:35:38.277Z,3.55
2018-01-17T22:38:06.334Z,3.62
2018-01-17T22:40:34.389Z,3.92
2018-01-17T22:43:02.467Z,4.50
2018-01-17T22:45:30.530Z,4.28
2018-01-17T22:47:58.589Z,4.05
2018-01-17T22:50:27.410Z,4.62
2018-01-17T22:52:55.474Z,4.00
2018-01-17T22:55:23.532Z,3.78
2018-01-17T22:57:51.598Z,4.20
2018-01-17T23:00:20.454Z,3.95
2018-01-17T23:02:48.514Z,3.50
2018-01-17T23:05:16.611Z,4.07
2018-01-17T23:07:45.441Z,3.10
2018-01-17T23:10:13.515Z,3.50
2018-01-17T23:12:41.577Z,4.62
2018-01-17T23:15:09.634Z,3.12
2018-01-17T23:17:37.701Z,3.47
2018-01-17T23:20:05.758Z,2.60
2018-01-17T23:22:34.643Z,3.20
2018-01-17T23:25:03.473Z,3.50
2018-01-17T23:27:31.527Z,2.90
2018-01-17T23:29:59.581Z,2.87
2018-01-17T23:32:27.654Z,2.80
2018-01-17T23:34:55.718Z,2.50
2018-01-17T23:37:23.792Z,2.55
2018-01-17T23:39:52.625Z,2.42
2018-01-17T23:42:20.691Z,2.20
2018-01-17T23:44:48.746Z,2.12
2018-01-17T23:47:16.811Z,2.20
2018-01-17T23:49:44.878Z,2.45
2018-01-17T23:52:12.929Z,2.30
2018-01-17T23:54:40.997Z,2.15
2018-01-17T23:57:09.826Z,2.20
2018-01-17T23:59:37.899Z,2.22
